createdAt,value
2017-09-05T00:00:39.741Z,14.62
2017-09-05T00:01:40.319Z,14.54
2017-09-05T00:02:40.899Z,14.55
2017-09-05T00:03:41.475Z,14.54
2017-09-05T00:04:42.052Z,14.48
2017-09-05T00:05:42.628Z,14.48
2017-09-05T00:06:43.204Z,14.51
2017-09-05T00:07:43.781Z,14.51
2017-09-05T00:08:44.359Z,14.50
2017-09-05T00:09:44.952Z,14.29
2017-09-05T00:10:45.530Z,14.43
2017-09-05T00:11:46.106Z,14.48
2017-09-05T00:12:46.684Z,14.53
2017-09-05T00:13:47.263Z,14.66
2017-09-05T00:14:47.837Z,14.55
2017-09-05T00:15:48.415Z,14.53
2017-09-05T00:16:48.993Z,14.29
2017-09-05T00:17:49.570Z,14.50
2017-09-05T00:18:50.161Z,14.43
2017-09-05T00:19:50.738Z,14.51
2017-09-05T00:20:51.314Z,14.55
2017-09-05T00:21:51.891Z,14.66
2017-09-05T00:22:52.470Z,14.66
2017-09-05T00:23:53.048Z,14.65
2017-09-05T00:24:53.640Z,14.65
2017-09-05T00:25:54.216Z,14.66
2017-09-05T00:26:54.793Z,14.48
2017-09-05T00:27:55.370Z,14.54
2017-09-05T00:28:55.948Z,14.60
2017-09-05T00:29:56.527Z,14.47
2017-09-05T00:30:57.103Z,14.32
2017-09-05T00:31:57.680Z,14.37
2017-09-05T00:32:58.259Z,14.37
2017-09-05T00:33:58.837Z,14.32
2017-09-05T00:34:59.415Z,14.33
2017-09-05T00:35:59.994Z,14.37
2017-09-05T00:37:00.582Z,14.35
2017-09-05T00:38:01.159Z,14.40
2017-09-05T00:39:01.735Z,14.51
2017-09-05T00:40:02.318Z,14.43
2017-09-05T00:41:02.896Z,14.54
2017-09-05T00:42:03.472Z,14.55
2017-09-05T00:43:04.049Z,14.60
2017-09-05T00:44:04.644Z,14.55
2017-09-05T00:45:05.217Z,14.58
2017-09-05T00:46:05.794Z,14.47
2017-09-05T00:47:06.372Z,14.30
2017-09-05T00:48:06.950Z,14.37
2017-09-05T00:49:07.525Z,14.29
2017-09-05T00:50:08.103Z,14.40
2017-09-05T00:51:08.679Z,14.30
2017-09-05T00:52:09.258Z,14.17
2017-09-05T00:53:09.833Z,14.23
2017-09-05T00:54:10.411Z,14.30
2017-09-05T00:55:10.986Z,14.47
2017-09-05T00:56:11.563Z,14.36
2017-09-05T00:57:12.142Z,14.51
2017-09-05T00:58:12.718Z,14.45
2017-09-05T00:59:13.309Z,14.50
2017-09-05T01:00:13.899Z,14.53
2017-09-05T01:01:14.476Z,14.58
2017-09-05T01:02:15.053Z,14.68
2017-09-05T01:03:15.629Z,14.63
2017-09-05T01:04:16.206Z,14.69
2017-09-05T01:05:16.782Z,14.69
2017-09-05T02:35:30.076Z,15.88
2017-09-05T02:36:30.654Z,15.84
2017-09-05T02:37:31.233Z,15.80
2017-09-05T02:38:31.812Z,15.61
2017-09-05T02:39:32.386Z,15.72
2017-09-05T02:40:32.964Z,15.67
2017-09-05T02:41:33.541Z,15.77
2017-09-05T02:42:34.119Z,15.76
2017-09-05T02:43:34.695Z,15.79
2017-09-05T02:44:35.280Z,15.90
2017-09-05T02:45:35.853Z,15.97
2017-09-05T02:46:36.430Z,15.94
2017-09-05T02:47:37.008Z,15.97
2017-09-05T02:48:37.584Z,16.04
2017-09-05T02:49:38.161Z,16.10
2017-09-05T02:50:38.740Z,16.13
2017-09-05T02:51:39.317Z,16.13
2017-09-05T02:52:39.896Z,16.04
2017-09-05T02:53:40.476Z,16.04
2017-09-05T02:54:41.048Z,16.15
2017-09-05T02:55:41.623Z,16.01
2017-09-05T02:56:42.200Z,16.13
2017-09-05T02:57:42.779Z,16.15
2017-09-05T02:58:43.355Z,16.08
2017-09-05T02:59:43.933Z,16.13
2017-09-05T03:00:44.510Z,16.16
2017-09-05T03:01:45.088Z,16.13
2017-09-05T03:02:45.668Z,16.10
2017-09-05T03:03:46.244Z,16.16
2017-09-05T03:04:46.821Z,16.15
2017-09-05T03:05:47.399Z,16.16
2017-09-05T03:06:47.977Z,16.28
2017-09-05T03:07:48.555Z,16.16
2017-09-05T03:08:49.132Z,16.24
2017-09-05T03:09:49.710Z,16.24
2017-09-05T03:10:50.285Z,16.16
2017-09-05T03:11:50.865Z,16.21
2017-09-05T03:12:51.453Z,16.20
2017-09-05T03:13:52.020Z,16.23
2017-09-05T03:14:52.597Z,16.17
2017-09-05T03:15:53.174Z,16.26
2017-09-05T03:16:53.750Z,16.23
2017-09-05T03:17:54.334Z,16.15
2017-09-05T03:18:54.922Z,16.24
2017-09-05T03:19:55.500Z,16.13
2017-09-05T03:20:56.077Z,16.28
2017-09-05T03:21:56.660Z,16.29
2017-09-05T03:22:57.230Z,16.26
2017-09-05T03:23:57.823Z,16.12
2017-09-05T03:24:58.399Z,16.24
2017-09-05T03:25:58.977Z,16.21
2017-09-05T03:26:59.556Z,16.23
2017-09-05T03:28:00.141Z,16.24
2017-09-05T03:29:00.726Z,16.21
2017-09-05T03:30:01.315Z,16.23
2017-09-05T03:31:01.894Z,16.29
2017-09-05T03:32:02.471Z,16.21
2017-09-05T03:33:03.048Z,16.29
2017-09-05T03:34:03.625Z,16.28
2017-09-05T03:35:04.202Z,16.32
2017-09-05T03:36:04.781Z,16.28
2017-09-05T03:37:05.359Z,16.26
2017-09-05T03:38:05.936Z,16.21
2017-09-05T03:39:06.511Z,16.17
2017-09-05T03:40:07.090Z,16.24
2017-09-05T03:41:07.668Z,16.10
2017-09-05T03:42:08.246Z,16.13
2017-09-05T03:43:08.824Z,16.21
2017-09-05T03:44:09.401Z,16.21
2017-09-05T03:45:09.991Z,16.24
2017-09-05T03:46:10.567Z,16.17
2017-09-05T03:47:11.144Z,16.16
2017-09-05T03:48:11.721Z,16.23
2017-09-05T03:49:12.300Z,16.26
2017-09-05T03:50:12.879Z,16.21
2017-09-05T03:51:13.454Z,16.26
2017-09-05T03:52:14.032Z,16.33
2017-09-05T03:53:14.609Z,16.29
2017-09-05T03:54:15.187Z,16.23
2017-09-05T03:55:15.765Z,16.20
2017-09-05T03:56:16.342Z,16.26
2017-09-05T03:57:16.916Z,16.26
2017-09-05T03:58:17.493Z,16.20
2017-09-05T03:59:18.071Z,16.28
2017-09-05T04:00:18.648Z,16.24
2017-09-05T04:01:19.228Z,16.31
2017-09-05T04:02:19.818Z,16.21
2017-09-05T04:03:20.396Z,16.33
2017-09-05T04:04:20.986Z,16.32
2017-09-05T04:05:21.565Z,16.33
2017-09-05T04:06:22.141Z,16.33
2017-09-05T04:07:22.718Z,16.28
2017-09-05T04:08:23.295Z,16.26
2017-09-05T04:09:23.873Z,16.32
2017-09-05T04:10:24.451Z,16.23
2017-09-05T04:11:25.027Z,16.32
2017-09-05T04:12:25.607Z,16.31
2017-09-05T04:13:26.181Z,16.24
2017-09-05T04:14:26.759Z,16.31
2017-09-05T04:15:27.339Z,16.29
2017-09-05T04:16:27.916Z,16.23
2017-09-05T04:17:28.494Z,16.28
2017-09-05T04:18:29.076Z,16.29
2017-09-05T04:19:29.650Z,16.20
2017-09-05T04:20:30.229Z,16.29
2017-09-05T04:21:30.805Z,16.23
2017-09-05T04:22:31.382Z,16.20
2017-09-05T04:23:31.961Z,16.31
2017-09-05T04:24:32.539Z,16.29
2017-09-05T04:25:33.118Z,16.31
2017-09-05T04:26:33.696Z,16.28
2017-09-05T04:27:34.271Z,16.31
2017-09-05T04:28:34.849Z,16.29
2017-09-05T04:29:35.428Z,16.28
2017-09-05T04:30:36.007Z,16.29
2017-09-05T04:31:36.582Z,16.21
2017-09-05T04:32:37.160Z,16.38
2017-09-05T04:33:37.752Z,16.32
2017-09-05T04:34:38.329Z,16.29
2017-09-05T04:35:38.905Z,16.28
2017-09-05T04:36:39.484Z,16.28
2017-09-05T04:37:40.061Z,16.36
2017-09-05T04:38:40.640Z,16.21
2017-09-05T04:39:41.217Z,16.26
2017-09-05T04:40:41.796Z,16.35
2017-09-05T04:41:42.372Z,16.29
2017-09-05T04:42:42.950Z,16.29
2017-09-05T04:43:43.528Z,16.33
2017-09-05T04:44:44.120Z,16.32
2017-09-05T04:45:44.698Z,16.29
2017-09-05T04:46:45.279Z,16.29
2017-09-05T04:47:45.869Z,16.35
2017-09-05T04:48:46.451Z,16.24
2017-09-05T04:49:47.035Z,16.21
2017-09-05T04:50:47.603Z,16.32
2017-09-05T04:51:48.180Z,16.33
2017-09-05T04:52:48.761Z,16.26
2017-09-05T04:53:49.340Z,16.39
2017-09-05T04:54:49.920Z,16.24
2017-09-05T04:55:50.501Z,16.38
2017-09-05T04:56:51.080Z,16.35
2017-09-05T04:57:51.662Z,16.28
2017-09-05T04:58:52.241Z,16.33
2017-09-05T04:59:52.817Z,16.31
2017-09-05T05:00:53.410Z,16.21
2017-09-05T05:01:53.989Z,16.10
2017-09-05T05:02:54.568Z,16.20
2017-09-05T05:03:55.146Z,16.17
2017-09-05T05:04:55.727Z,16.28
2017-09-05T05:05:56.306Z,16.13
2017-09-05T05:06:56.883Z,16.21
2017-09-05T05:07:57.462Z,16.21
2017-09-05T05:08:58.043Z,16.21
2017-09-05T05:09:58.636Z,16.17
2017-09-05T05:10:59.229Z,16.13
2017-09-05T05:11:59.820Z,16.04
2017-09-05T05:13:00.401Z,16.08
2017-09-05T05:14:00.984Z,16.04
2017-09-05T05:15:01.568Z,16.02
2017-09-05T05:16:02.150Z,16.16
2017-09-05T05:17:02.729Z,15.97
2017-09-05T05:18:03.308Z,15.97
2017-09-05T05:19:03.905Z,16.00
2017-09-05T05:20:04.478Z,16.12
2017-09-05T05:21:05.057Z,15.98
2017-09-05T05:22:05.640Z,15.98
2017-09-05T05:23:06.213Z,16.05
2017-09-05T05:24:06.791Z,16.01
2017-09-05T05:25:07.370Z,16.00
2017-09-05T05:26:07.949Z,16.01
2017-09-05T05:27:08.530Z,15.95
2017-09-05T05:28:09.118Z,16.05
2017-09-05T05:29:09.698Z,16.12
2017-09-05T05:30:10.279Z,16.02
2017-09-05T05:31:10.861Z,15.92
2017-09-05T05:32:11.440Z,16.08
2017-09-05T05:33:12.018Z,16.08
2017-09-05T05:34:12.599Z,16.17
2017-09-05T05:35:13.179Z,16.15
2017-09-05T05:36:13.758Z,16.24
2017-09-05T05:37:14.339Z,16.20
2017-09-05T05:38:14.933Z,16.33
2017-09-05T05:39:15.520Z,16.29
2017-09-05T05:40:16.104Z,16.36
2017-09-05T05:41:16.684Z,16.28
2017-09-05T05:42:17.263Z,16.31
2017-09-05T05:43:17.843Z,16.38
2017-09-05T05:44:18.425Z,16.35
2017-09-05T05:45:19.004Z,16.33
2017-09-05T05:46:19.584Z,16.32
2017-09-05T05:47:20.166Z,16.39
2017-09-05T05:48:20.745Z,16.39
2017-09-05T05:49:21.325Z,16.43
2017-09-05T05:50:21.917Z,16.36
2017-09-05T05:51:22.498Z,16.50
2017-09-05T05:52:23.078Z,16.42
2017-09-05T05:53:23.658Z,16.54
2017-09-05T05:54:24.251Z,16.54
2017-09-05T05:55:24.830Z,16.50
2017-09-05T05:56:25.411Z,16.47
2017-09-05T05:57:25.994Z,16.53
2017-09-05T05:58:26.575Z,16.54
2017-09-05T05:59:27.158Z,16.64
2017-09-05T06:00:27.736Z,16.61
2017-09-05T06:01:28.318Z,16.74
2017-09-05T06:02:28.902Z,16.72
2017-09-05T06:03:29.478Z,16.64
2017-09-05T06:04:30.058Z,16.74
2017-09-05T06:05:30.643Z,16.76
2017-09-05T06:06:31.221Z,16.76
2017-09-05T06:07:31.801Z,16.76
2017-09-05T06:08:32.381Z,16.87
2017-09-05T06:09:32.975Z,16.76
2017-09-05T06:10:33.556Z,16.81
2017-09-05T06:11:34.136Z,16.81
2017-09-05T06:12:34.714Z,16.78
2017-09-05T06:13:35.308Z,16.86
2017-09-05T06:14:35.890Z,16.76
2017-09-05T06:15:36.472Z,16.79
2017-09-05T06:16:37.049Z,16.83
2017-09-05T06:17:37.629Z,16.83
2017-09-05T06:18:38.222Z,16.83
2017-09-05T06:19:38.803Z,16.84
2017-09-05T06:20:39.385Z,16.93
2017-09-05T06:21:39.965Z,16.90
2017-09-05T06:22:40.546Z,16.93
2017-09-05T06:23:41.126Z,16.83
2017-09-05T06:24:41.720Z,16.93
2017-09-05T06:25:42.301Z,16.89
2017-09-05T06:26:42.882Z,17.04
2017-09-05T06:27:43.465Z,17.06
2017-09-05T06:28:44.046Z,16.91
2017-09-05T06:29:44.640Z,17.01
2017-09-05T06:30:45.221Z,17.01
2017-09-05T06:31:45.801Z,17.05
2017-09-05T06:32:46.382Z,17.02
2017-09-05T06:33:46.962Z,17.15
2017-09-05T06:34:47.543Z,17.15
2017-09-05T06:35:48.123Z,17.15
2017-09-05T06:36:48.703Z,17.22
2017-09-05T06:37:49.285Z,17.22
2017-09-05T06:38:49.864Z,17.16
2017-09-05T06:39:50.445Z,17.19
2017-09-05T06:40:51.023Z,17.11
2017-09-05T06:41:51.606Z,17.12
2017-09-05T06:42:52.186Z,17.20
2017-09-05T06:43:52.767Z,17.20
2017-09-05T06:44:53.349Z,17.16
2017-09-05T06:45:53.934Z,17.30
2017-09-05T06:46:54.512Z,17.29
2017-09-05T06:47:55.094Z,17.24
2017-09-05T06:48:55.675Z,17.23
2017-09-05T06:49:56.257Z,17.26
2017-09-05T06:50:56.840Z,17.31
2017-09-05T06:51:57.435Z,17.29
2017-09-05T06:52:58.018Z,17.34
2017-09-05T06:53:58.603Z,17.38
2017-09-05T06:54:59.186Z,17.51
2017-09-05T06:55:59.762Z,17.38
2017-09-05T06:57:00.342Z,17.49
2017-09-05T06:58:00.925Z,17.51
2017-09-05T06:59:01.506Z,17.39
2017-09-05T07:00:02.087Z,17.42
2017-09-05T07:01:02.669Z,17.41
2017-09-05T07:02:03.249Z,17.44
2017-09-05T07:03:03.830Z,17.54
2017-09-05T07:04:04.413Z,17.59
2017-09-05T07:05:04.995Z,17.60
2017-09-05T07:06:05.574Z,17.68
2017-09-05T07:07:06.156Z,17.72
2017-09-05T07:08:06.739Z,17.67
2017-09-05T07:09:07.318Z,17.63
2017-09-05T07:10:07.902Z,17.78
2017-09-05T07:11:08.484Z,17.70
2017-09-05T07:12:09.064Z,17.71
2017-09-05T07:13:09.645Z,17.70
2017-09-05T07:14:10.228Z,17.70
2017-09-05T07:15:10.808Z,17.71
2017-09-05T07:16:11.392Z,17.65
2017-09-05T07:17:11.973Z,17.68
2017-09-05T07:18:12.555Z,17.71
2017-09-05T07:19:13.138Z,17.80
2017-09-05T07:20:13.718Z,17.85
2017-09-05T07:21:14.301Z,17.94
2017-09-05T07:22:14.882Z,18.03
2017-09-05T07:23:15.464Z,18.01
2017-09-05T07:24:16.045Z,18.01
2017-09-05T07:25:16.627Z,17.97
2017-09-05T07:26:17.209Z,18.01
2017-09-05T07:27:17.792Z,18.01
2017-09-05T07:28:18.376Z,18.00
2017-09-05T07:29:18.956Z,18.10
2017-09-05T07:30:19.539Z,18.20
2017-09-05T07:31:20.119Z,18.08
2017-09-05T07:32:20.714Z,18.22
2017-09-05T07:33:21.296Z,18.18
2017-09-05T07:34:21.883Z,18.25
2017-09-05T07:35:22.476Z,18.20
2017-09-05T07:36:23.056Z,18.25
2017-09-05T07:37:23.639Z,18.26
2017-09-05T07:38:24.240Z,18.20
2017-09-05T07:39:24.818Z,18.23
2017-09-05T07:40:25.399Z,18.33
2017-09-05T07:41:25.981Z,18.41
2017-09-05T07:42:26.565Z,18.34
2017-09-05T07:43:27.146Z,18.34
2017-09-05T07:44:27.728Z,18.35
2017-09-05T07:45:28.311Z,18.38
2017-09-05T07:46:28.897Z,18.47
2017-09-05T07:47:29.487Z,18.58
2017-09-05T07:48:30.067Z,18.60
2017-09-05T07:49:30.652Z,18.52
2017-09-05T07:50:31.232Z,18.56
2017-09-05T07:51:31.829Z,18.60
2017-09-05T07:52:32.417Z,18.59
2017-09-05T07:53:33.008Z,18.62
2017-09-05T07:54:33.591Z,18.65
2017-09-05T07:55:34.173Z,18.63
2017-09-05T07:56:34.755Z,18.59
2017-09-05T07:57:35.351Z,18.70
2017-09-05T07:58:35.935Z,18.74
2017-09-05T07:59:36.516Z,18.75
2017-09-05T08:00:37.097Z,18.86
2017-09-05T08:01:37.680Z,18.89
2017-09-05T08:02:38.263Z,18.84
2017-09-05T08:03:38.847Z,18.78
2017-09-05T08:04:39.430Z,18.90
2017-09-05T08:05:40.011Z,18.90
2017-09-05T08:06:40.594Z,19.04
2017-09-05T08:07:41.179Z,19.29
2017-09-05T08:08:41.760Z,19.41
2017-09-05T08:09:42.343Z,19.49
2017-09-05T08:10:42.925Z,19.47
2017-09-05T08:11:43.507Z,19.52
2017-09-05T08:12:44.090Z,19.59
2017-09-05T08:13:44.674Z,19.59
2017-09-05T08:14:45.255Z,19.55
2017-09-05T08:15:45.840Z,19.79
2017-09-05T08:16:46.422Z,19.86
2017-09-05T08:17:47.004Z,19.92
2017-09-05T08:18:47.600Z,19.92
2017-09-05T08:19:48.183Z,20.07
2017-09-05T08:20:48.766Z,20.11
2017-09-05T08:21:49.351Z,19.96
2017-09-05T08:22:49.934Z,20.02
2017-09-05T08:23:50.515Z,20.13
2017-09-05T08:24:51.104Z,20.19
2017-09-05T08:25:51.684Z,19.92
2017-09-05T08:26:52.262Z,19.99
2017-09-05T08:27:52.858Z,20.06
2017-09-05T08:28:53.443Z,19.92
2017-09-05T08:29:54.024Z,20.00
2017-09-05T08:30:54.614Z,20.06
2017-09-05T08:31:55.190Z,20.18
2017-09-05T08:32:55.774Z,20.06
2017-09-05T08:33:56.357Z,20.10
2017-09-05T08:34:56.942Z,20.26
2017-09-05T08:35:57.524Z,20.47
2017-09-05T08:36:58.107Z,20.62
2017-09-05T08:37:58.701Z,20.72
2017-09-05T08:38:59.286Z,20.63
2017-09-05T08:39:59.883Z,20.62
2017-09-05T08:41:00.465Z,20.58
2017-09-05T08:42:01.046Z,20.60
2017-09-05T08:43:01.632Z,20.78
2017-09-05T08:44:02.215Z,20.77
2017-09-05T08:45:02.796Z,20.88
2017-09-05T08:46:03.380Z,20.69
2017-09-05T08:47:03.963Z,20.48
2017-09-05T08:48:04.545Z,20.59
2017-09-05T08:49:05.134Z,20.60
2017-09-05T08:50:05.729Z,20.50
2017-09-05T08:51:06.311Z,20.65
2017-09-05T08:52:06.894Z,20.82
2017-09-05T08:53:07.478Z,20.93
2017-09-05T08:54:08.060Z,20.87
2017-09-05T08:55:08.644Z,20.99
2017-09-05T08:56:09.229Z,20.85
2017-09-05T08:57:09.809Z,20.97
2017-09-05T08:58:10.392Z,21.05
2017-09-05T08:59:10.989Z,20.84
2017-09-05T09:00:11.573Z,21.05
2017-09-05T09:01:12.155Z,21.05
2017-09-05T09:02:12.738Z,21.09
2017-09-05T09:03:13.322Z,20.95
2017-09-05T09:04:13.906Z,21.03
2017-09-05T09:05:14.490Z,21.25
2017-09-05T09:06:15.073Z,21.40
2017-09-05T09:07:15.656Z,21.20
2017-09-05T09:08:16.239Z,21.25
2017-09-05T09:09:16.823Z,21.24
2017-09-05T09:10:17.405Z,21.20
2017-09-05T09:11:17.988Z,21.05
2017-09-05T09:12:18.572Z,21.02
2017-09-05T09:13:19.155Z,21.15
2017-09-05T09:14:19.739Z,21.33
2017-09-05T09:15:20.324Z,21.21
2017-09-05T09:16:20.905Z,21.14
2017-09-05T09:17:21.488Z,21.05
2017-09-05T09:18:22.071Z,21.21
2017-09-05T09:19:22.658Z,21.22
2017-09-05T09:20:23.238Z,21.22
2017-09-05T09:21:23.821Z,21.24
2017-09-05T09:22:24.420Z,21.22
2017-09-05T09:23:25.015Z,21.12
2017-09-05T09:24:25.598Z,21.25
2017-09-05T09:25:26.183Z,21.21
2017-09-05T09:26:26.767Z,21.02
2017-09-05T09:27:27.349Z,21.05
2017-09-05T09:28:27.933Z,21.30
2017-09-05T09:29:28.516Z,21.09
2017-09-05T09:30:29.099Z,21.14
2017-09-05T09:31:29.683Z,21.39
2017-09-05T09:32:30.267Z,21.70
2017-09-05T09:33:30.852Z,21.69
2017-09-05T09:34:31.434Z,21.66
2017-09-05T09:35:32.017Z,21.61
2017-09-05T09:36:32.602Z,21.85
2017-09-05T09:37:33.185Z,21.79
2017-09-05T09:38:33.768Z,21.83
2017-09-05T09:39:34.356Z,21.87
2017-09-05T09:40:34.949Z,21.93
2017-09-05T09:41:35.533Z,22.11
2017-09-05T09:42:36.117Z,22.17
2017-09-05T09:43:36.701Z,22.17
2017-09-05T09:44:37.284Z,22.20
2017-09-05T09:45:37.868Z,22.48
2017-09-05T09:46:38.454Z,22.65
2017-09-05T09:47:39.038Z,22.83
2017-09-05T09:48:39.622Z,22.83
2017-09-05T09:49:40.208Z,22.91
2017-09-05T09:50:40.791Z,22.78
2017-09-05T09:51:41.375Z,22.93
2017-09-05T09:52:41.961Z,22.91
2017-09-05T09:53:42.544Z,22.76
2017-09-05T09:54:43.130Z,22.80
2017-09-05T09:55:43.730Z,22.90
2017-09-05T09:56:44.313Z,22.81
2017-09-05T09:57:44.895Z,22.81
2017-09-05T09:58:45.481Z,22.98
2017-09-05T09:59:46.063Z,23.02
2017-09-05T10:00:46.647Z,23.00
2017-09-05T10:01:47.233Z,22.83
2017-09-05T10:02:47.817Z,23.31
2017-09-05T10:03:48.402Z,23.28
2017-09-05T10:04:48.986Z,23.36
2017-09-05T10:05:49.571Z,23.63
2017-09-05T10:06:50.155Z,23.63
2017-09-05T10:07:50.739Z,23.69
2017-09-05T10:08:51.323Z,23.74
2017-09-05T10:09:51.919Z,23.66
2017-09-05T10:10:52.502Z,23.41
2017-09-05T10:11:53.086Z,23.15
2017-09-05T10:12:53.671Z,23.28
2017-09-05T10:13:54.256Z,23.34
2017-09-05T10:14:54.854Z,23.18
2017-09-05T10:15:55.444Z,23.17
2017-09-05T10:16:56.038Z,23.18
2017-09-05T10:17:56.623Z,23.03
2017-09-05T10:18:57.210Z,22.99
2017-09-05T10:19:57.792Z,23.03
2017-09-05T10:20:58.376Z,23.34
2017-09-05T10:21:58.965Z,23.24
2017-09-05T10:22:59.545Z,23.06
2017-09-05T10:24:00.136Z,22.83
2017-09-05T10:25:00.716Z,23.12
2017-09-05T10:26:01.301Z,23.02
2017-09-05T10:27:01.885Z,23.02
2017-09-05T10:28:02.471Z,23.27
2017-09-05T10:29:03.056Z,23.41
2017-09-05T10:30:03.640Z,23.66
2017-09-05T10:31:04.226Z,23.68
2017-09-05T10:32:04.811Z,23.69
2017-09-05T10:33:05.395Z,23.84
2017-09-05T10:34:05.981Z,23.71
2017-09-05T10:35:06.565Z,23.63
2017-09-05T10:36:07.150Z,24.08
2017-09-05T10:37:07.735Z,23.93
2017-09-05T10:38:08.322Z,23.68
2017-09-05T10:39:08.907Z,23.63
2017-09-05T10:40:09.495Z,23.56
2017-09-05T10:41:10.078Z,23.76
2017-09-05T10:42:10.660Z,23.95
2017-09-05T10:43:11.244Z,23.99
2017-09-05T10:44:11.831Z,23.88
2017-09-05T10:45:12.421Z,23.84
2017-09-05T10:46:12.999Z,23.86
2017-09-05T10:47:13.585Z,23.86
2017-09-05T10:48:14.170Z,23.65
2017-09-05T10:49:14.754Z,23.91
2017-09-05T10:50:15.340Z,24.06
2017-09-05T10:51:15.924Z,24.23
2017-09-05T10:52:16.510Z,24.13
2017-09-05T10:53:17.097Z,24.14
2017-09-05T10:54:17.681Z,24.28
2017-09-05T10:55:18.265Z,24.43
2017-09-05T10:56:18.852Z,24.51
2017-09-05T10:57:19.436Z,24.39
2017-09-05T10:58:20.021Z,24.39
2017-09-05T10:59:20.608Z,23.93
2017-09-05T11:00:21.193Z,23.93
2017-09-05T11:01:21.790Z,23.95
2017-09-05T11:02:22.375Z,24.03
2017-09-05T11:03:22.961Z,23.71
2017-09-05T11:04:23.552Z,23.99
2017-09-05T11:05:24.150Z,23.74
2017-09-05T11:06:24.734Z,23.78
2017-09-05T11:07:25.319Z,23.84
2017-09-05T11:08:25.904Z,24.32
2017-09-05T11:09:26.488Z,24.38
2017-09-05T11:10:27.072Z,24.32
2017-09-05T11:11:27.659Z,24.20
2017-09-05T11:12:28.242Z,24.16
2017-09-05T11:13:28.827Z,24.18
2017-09-05T11:14:29.413Z,24.58
2017-09-05T11:15:29.999Z,24.86
2017-09-05T11:16:30.582Z,24.93
2017-09-05T11:17:31.168Z,24.77
2017-09-05T11:18:31.752Z,24.70
2017-09-05T11:19:32.337Z,24.86
2017-09-05T11:20:32.923Z,25.01
2017-09-05T11:21:33.507Z,25.14
2017-09-05T11:22:34.092Z,25.22
2017-09-05T11:23:34.678Z,24.77
2017-09-05T11:24:35.262Z,24.55
2017-09-05T11:25:35.848Z,24.54
2017-09-05T11:26:36.433Z,24.76
2017-09-05T11:27:37.024Z,25.10
2017-09-05T11:28:37.604Z,25.17
2017-09-05T11:29:38.191Z,25.32
2017-09-05T11:30:38.777Z,25.38
2017-09-05T11:31:39.363Z,25.06
2017-09-05T11:32:39.948Z,24.78
2017-09-05T11:33:40.532Z,24.65
2017-09-05T11:34:41.119Z,24.47
2017-09-05T11:35:41.705Z,24.42
2017-09-05T11:36:42.286Z,24.61
2017-09-05T11:37:42.872Z,24.55
2017-09-05T11:38:43.458Z,24.42
2017-09-05T11:39:44.043Z,24.13
2017-09-05T11:40:44.635Z,23.92
2017-09-05T11:41:45.214Z,23.93
2017-09-05T11:42:45.799Z,23.99
2017-09-05T11:43:46.384Z,24.05
2017-09-05T11:44:46.971Z,24.03
2017-09-05T11:45:47.557Z,24.05
2017-09-05T11:46:48.140Z,23.98
2017-09-05T11:47:48.724Z,24.06
2017-09-05T11:48:49.310Z,24.16
2017-09-05T11:49:49.896Z,24.18
2017-09-05T11:50:50.491Z,24.13
2017-09-05T11:51:51.068Z,24.06
2017-09-05T11:52:51.653Z,24.06
2017-09-05T11:53:52.238Z,24.01
2017-09-05T11:54:52.824Z,24.02
2017-09-05T11:55:53.409Z,24.10
2017-09-05T11:56:53.996Z,24.02
2017-09-05T11:57:54.581Z,24.01
2017-09-05T11:58:55.165Z,23.87
2017-09-05T11:59:55.750Z,23.92
2017-09-05T12:00:56.336Z,24.01
2017-09-05T12:01:56.921Z,24.06
2017-09-05T12:02:57.506Z,24.14
2017-09-05T12:03:58.092Z,24.24
2017-09-05T12:04:58.675Z,24.16
2017-09-05T12:05:59.261Z,24.23
2017-09-05T12:06:59.860Z,24.26
2017-09-05T12:08:00.452Z,24.14
2017-09-05T12:09:01.044Z,24.06
2017-09-05T12:10:01.629Z,24.14
2017-09-05T12:11:02.245Z,24.11
2017-09-05T12:12:02.798Z,24.11
2017-09-05T12:13:03.382Z,24.28
2017-09-05T12:14:03.967Z,24.24
2017-09-05T12:15:04.552Z,24.50
2017-09-05T12:16:05.136Z,24.35
2017-09-05T12:17:05.720Z,24.26
2017-09-05T12:18:06.311Z,24.28
2017-09-05T12:19:06.888Z,24.10
2017-09-05T12:20:07.474Z,24.28
2017-09-05T12:21:08.059Z,24.35
2017-09-05T12:22:08.643Z,24.53
2017-09-05T12:23:09.230Z,24.50
2017-09-05T12:24:09.819Z,24.29
2017-09-05T12:25:10.398Z,24.11
2017-09-05T12:26:10.983Z,23.98
2017-09-05T12:27:11.569Z,24.16
2017-09-05T12:28:12.153Z,24.10
2017-09-05T12:29:12.738Z,24.28
2017-09-05T12:30:13.323Z,24.24
2017-09-05T12:31:13.907Z,24.28
2017-09-05T12:32:14.492Z,24.32
2017-09-05T12:33:15.079Z,24.21
2017-09-05T12:34:15.665Z,24.16
2017-09-05T12:35:16.249Z,24.16
2017-09-05T12:36:16.831Z,24.21
2017-09-05T12:37:17.419Z,24.18
2017-09-05T12:38:18.003Z,24.03
2017-09-05T12:39:18.586Z,24.17
2017-09-05T12:40:19.173Z,24.21
2017-09-05T12:41:19.757Z,24.26
2017-09-05T12:42:20.341Z,24.26
2017-09-05T12:43:20.925Z,24.16
2017-09-05T12:44:21.510Z,24.14
2017-09-05T12:45:22.097Z,23.98
2017-09-05T12:46:22.679Z,23.73
2017-09-05T12:47:23.264Z,23.91
2017-09-05T12:48:23.848Z,24.02
2017-09-05T12:49:24.434Z,24.02
2017-09-05T12:50:25.019Z,24.01
2017-09-05T12:51:25.602Z,24.03
2017-09-05T12:52:26.189Z,23.95
2017-09-05T12:53:26.772Z,23.92
2017-09-05T12:54:27.357Z,24.01
2017-09-05T12:55:27.944Z,23.92
2017-09-05T12:56:28.529Z,23.98
2017-09-05T12:57:29.126Z,23.99
2017-09-05T12:58:29.701Z,23.92
2017-09-05T12:59:30.283Z,23.71
2017-09-05T13:00:30.866Z,23.74
2017-09-05T13:01:31.452Z,23.87
2017-09-05T13:02:32.036Z,23.87
2017-09-05T13:03:32.619Z,23.86
2017-09-05T13:04:33.206Z,23.88
2017-09-05T13:05:33.791Z,23.93
2017-09-05T13:06:34.374Z,23.95
2017-09-05T13:07:34.960Z,23.93
2017-09-05T13:08:35.544Z,24.02
2017-09-05T13:09:36.128Z,24.02
2017-09-05T13:10:36.715Z,24.28
2017-09-05T13:11:37.298Z,24.28
2017-09-05T13:12:37.882Z,24.32
2017-09-05T13:13:38.468Z,24.13
2017-09-05T13:14:39.052Z,24.17
2017-09-05T13:15:39.636Z,24.08
2017-09-05T13:16:40.224Z,24.18
2017-09-05T13:17:40.808Z,24.05
2017-09-05T13:18:41.407Z,24.28
2017-09-05T13:19:41.991Z,24.17
2017-09-05T13:20:42.577Z,24.29
2017-09-05T13:21:43.161Z,24.33
2017-09-05T13:22:43.747Z,24.24
2017-09-05T13:23:44.332Z,24.02
2017-09-05T13:24:44.916Z,24.14
2017-09-05T13:25:45.501Z,24.14
2017-09-05T13:26:46.088Z,24.06
2017-09-05T13:27:46.673Z,24.02
2017-09-05T13:28:47.257Z,24.06
2017-09-05T13:29:47.844Z,24.03
2017-09-05T13:30:48.429Z,24.08
2017-09-05T13:31:49.014Z,23.98
2017-09-05T13:32:49.599Z,23.96
2017-09-05T13:33:50.386Z,23.87
2017-09-05T13:34:50.983Z,23.98
2017-09-05T13:35:51.570Z,23.83
2017-09-05T13:36:52.154Z,23.88
2017-09-05T13:37:52.738Z,23.84
2017-09-05T13:38:53.321Z,23.91
2017-09-05T13:39:53.906Z,23.96
2017-09-05T13:40:54.490Z,23.93
2017-09-05T13:41:55.074Z,23.83
2017-09-05T13:42:55.659Z,23.87
2017-09-05T13:43:56.244Z,23.78
2017-09-05T13:44:56.843Z,23.92
2017-09-05T13:45:57.442Z,23.99
2017-09-05T13:46:58.026Z,23.87
2017-09-05T13:47:58.612Z,23.91
2017-09-05T13:48:59.196Z,23.93
2017-09-05T13:49:59.779Z,23.91
2017-09-05T13:51:00.365Z,23.91
2017-09-05T13:52:00.950Z,23.84
2017-09-05T13:53:01.535Z,23.80
2017-09-05T13:54:02.119Z,23.78
2017-09-05T13:55:02.709Z,23.66
2017-09-05T13:56:03.287Z,23.66
2017-09-05T13:57:03.873Z,23.61
2017-09-05T13:58:04.457Z,23.71
2017-09-05T13:59:05.042Z,23.80
2017-09-05T14:00:05.628Z,23.81
2017-09-05T14:01:06.211Z,23.83
2017-09-05T14:02:06.795Z,23.80
2017-09-05T14:03:07.382Z,23.80
2017-09-05T14:04:07.997Z,23.69
2017-09-05T14:05:08.566Z,23.68
2017-09-05T14:06:09.151Z,23.66
2017-09-05T14:07:09.736Z,23.65
2017-09-05T14:08:10.335Z,23.74
2017-09-05T14:09:10.922Z,23.71
2017-09-05T14:10:11.504Z,23.74
2017-09-05T14:11:12.090Z,23.73
2017-09-05T14:12:12.674Z,23.86
2017-09-05T14:13:13.259Z,23.71
2017-09-05T14:14:13.845Z,23.76
2017-09-05T14:15:14.429Z,23.91
2017-09-05T14:16:15.014Z,24.03
2017-09-05T14:17:15.598Z,24.11
2017-09-05T14:18:16.183Z,24.28
2017-09-05T14:19:16.766Z,24.28
2017-09-05T14:20:17.354Z,24.36
2017-09-05T14:21:17.937Z,24.57
2017-09-05T14:22:18.536Z,24.57
2017-09-05T14:23:19.122Z,24.54
2017-09-05T14:24:19.708Z,24.45
2017-09-05T14:25:20.294Z,24.32
2017-09-05T14:26:20.881Z,24.20
2017-09-05T14:27:21.464Z,24.17
2017-09-05T14:28:22.052Z,24.38
2017-09-05T14:29:22.638Z,24.66